sensor_id;sensor_type;location;lat;lon;timestamp;P1;durP1;ratioP1;P2;durP2;ratioP2
22812;SDS011;11573;51.334;3.244;2022-10-31T00:01:12;9.40;;;6.97;;
22812;SDS011;11573;51.334;3.244;2022-10-31T00:03:45;12.07;;;7.35;;
22812;SDS011;11573;51.334;3.244;2022-10-31T00:06:13;9.20;;;7.10;;
22812;SDS011;11573;51.334;3.244;2022-10-31T00:08:41;8.18;;;6.40;;
22812;SDS011;11573;51.334;3.244;2022-10-31T00:11:08;10.35;;;7.28;;
22812;SDS011;11573;51.334;3.244;2022-10-31T00:13:36;7.60;;;6.78;;
22812;SDS011;11573;51.334;3.244;2022-10-31T00:16:03;11.38;;;7.45;;
22812;SDS011;11573;51.334;3.244;2022-10-31T00:18:31;11.65;;;7.68;;
22812;SDS011;11573;51.334;3.244;2022-10-31T00:21:01;9.77;;;6.88;;
22812;SDS011;11573;51.334;3.244;2022-10-31T00:23:29;8.80;;;7.07;;
22812;SDS011;11573;51.334;3.244;2022-10-31T00:26:00;10.35;;;7.93;;
22812;SDS011;11573;51.334;3.244;2022-10-31T00:28:28;10.00;;;7.13;;
22812;SDS011;11573;51.334;3.244;2022-10-31T00:31:02;12.05;;;7.90;;
22812;SDS011;11573;51.334;3.244;2022-10-31T00:33:32;14.70;;;8.50;;
22812;SDS011;11573;51.334;3.244;2022-10-31T00:36:00;11.07;;;8.48;;
22812;SDS011;11573;51.334;3.244;2022-10-31T00:38:27;15.23;;;9.23;;
22812;SDS011;11573;51.334;3.244;2022-10-31T00:40:54;10.75;;;8.48;;
22812;SDS011;11573;51.334;3.244;2022-10-31T00:43:21;13.60;;;9.82;;
22812;SDS011;11573;51.334;3.244;2022-10-31T00:45:48;12.95;;;9.68;;
22812;SDS011;11573;51.334;3.244;2022-10-31T00:48:15;11.20;;;8.38;;
22812;SDS011;11573;51.334;3.244;2022-10-31T00:50:42;12.50;;;9.50;;
22812;SDS011;11573;51.334;3.244;2022-10-31T00:53:08;12.52;;;8.65;;
22812;SDS011;11573;51.334;3.244;2022-10-31T00:55:36;11.00;;;8.68;;
22812;SDS011;11573;51.334;3.244;2022-10-31T00:58:03;11.68;;;7.82;;
22812;SDS011;11573;51.334;3.244;2022-10-31T01:00:31;16.25;;;9.70;;
22812;SDS011;11573;51.334;3.244;2022-10-31T01:02:58;11.82;;;8.52;;
22812;SDS011;11573;51.334;3.244;2022-10-31T01:05:25;12.15;;;9.15;;
22812;SDS011;11573;51.334;3.244;2022-10-31T01:07:52;12.93;;;8.52;;
22812;SDS011;11573;51.334;3.244;2022-10-31T01:10:19;10.32;;;8.55;;
22812;SDS011;11573;51.334;3.244;2022-10-31T01:12:47;13.35;;;8.25;;
22812;SDS011;11573;51.334;3.244;2022-10-31T01:15:16;12.10;;;8.73;;
22812;SDS011;11573;51.334;3.244;2022-10-31T01:17:46;13.70;;;8.68;;
22812;SDS011;11573;51.334;3.244;2022-10-31T01:20:13;12.70;;;9.10;;
22812;SDS011;11573;51.334;3.244;2022-10-31T01:22:41;15.38;;;10.25;;
22812;SDS011;11573;51.334;3.244;2022-10-31T01:25:08;14.02;;;9.82;;
22812;SDS011;11573;51.334;3.244;2022-10-31T01:27:36;11.77;;;9.00;;
22812;SDS011;11573;51.334;3.244;2022-10-31T01:30:06;14.80;;;9.38;;
22812;SDS011;11573;51.334;3.244;2022-10-31T01:32:33;13.55;;;9.73;;
22812;SDS011;11573;51.334;3.244;2022-10-31T01:35:00;14.18;;;9.68;;
22812;SDS011;11573;51.334;3.244;2022-10-31T01:37:27;11.98;;;9.52;;
22812;SDS011;11573;51.334;3.244;2022-10-31T01:39:54;15.35;;;9.85;;
22812;SDS011;11573;51.334;3.244;2022-10-31T01:42:21;15.70;;;9.90;;
22812;SDS011;11573;51.334;3.244;2022-10-31T01:44:59;13.27;;;8.82;;
22812;SDS011;11573;51.334;3.244;2022-10-31T01:47:33;15.20;;;10.13;;
22812;SDS011;11573;51.334;3.244;2022-10-31T01:50:08;15.68;;;10.52;;
22812;SDS011;11573;51.334;3.244;2022-10-31T01:52:43;13.85;;;10.25;;
22812;SDS011;11573;51.334;3.244;2022-10-31T01:55:18;16.23;;;10.63;;
22812;SDS011;11573;51.334;3.244;2022-10-31T01:57:54;18.33;;;10.82;;
22812;SDS011;11573;51.334;3.244;2022-10-31T02:00:24;19.10;;;10.05;;
22812;SDS011;11573;51.334;3.244;2022-10-31T02:02:51;16.05;;;10.93;;
22812;SDS011;11573;51.334;3.244;2022-10-31T02:05:19;17.20;;;11.55;;
22812;SDS011;11573;51.334;3.244;2022-10-31T02:10:35;17.95;;;11.65;;
22812;SDS011;11573;51.334;3.244;2022-10-31T02:13:04;16.10;;;11.30;;
22812;SDS011;11573;51.334;3.244;2022-10-31T02:15:41;16.73;;;11.57;;
22812;SDS011;11573;51.334;3.244;2022-10-31T02:18:09;19.50;;;11.45;;
22812;SDS011;11573;51.334;3.244;2022-10-31T02:20:39;18.33;;;10.63;;
22812;SDS011;11573;51.334;3.244;2022-10-31T02:37:18;16.02;;;10.20;;
22812;SDS011;11573;51.334;3.244;2022-10-31T02:45:35;18.38;;;12.80;;
22812;SDS011;11573;51.334;3.244;2022-10-31T02:48:12;22.27;;;12.80;;
22812;SDS011;11573;51.334;3.244;2022-10-31T02:50:47;18.13;;;11.95;;
22812;SDS011;11573;51.334;3.244;2022-10-31T02:53:18;19.95;;;13.00;;
22812;SDS011;11573;51.334;3.244;2022-10-31T02:55:50;16.63;;;12.02;;
22812;SDS011;11573;51.334;3.244;2022-10-31T02:58:31;19.38;;;12.45;;
22812;SDS011;11573;51.334;3.244;2022-10-31T03:06:45;16.15;;;11.88;;
22812;SDS011;11573;51.334;3.244;2022-10-31T03:09:41;18.88;;;12.63;;
22812;SDS011;11573;51.334;3.244;2022-10-31T03:15:45;20.55;;;13.82;;
22812;SDS011;11573;51.334;3.244;2022-10-31T03:21:57;19.90;;;13.98;;
22812;SDS011;11573;51.334;3.244;2022-10-31T03:24:05;22.10;;;13.25;;
22812;SDS011;11573;51.334;3.244;2022-10-31T03:26:35;20.45;;;13.82;;
22812;SDS011;11573;51.334;3.244;2022-10-31T03:29:05;19.48;;;13.38;;
22812;SDS011;11573;51.334;3.244;2022-10-31T03:32:13;17.10;;;12.60;;
22812;SDS011;11573;51.334;3.244;2022-10-31T03:34:35;20.40;;;12.98;;
22812;SDS011;11573;51.334;3.244;2022-10-31T03:37:04;19.15;;;12.63;;
22812;SDS011;11573;51.334;3.244;2022-10-31T03:39:36;17.10;;;12.88;;
22812;SDS011;11573;51.334;3.244;2022-10-31T03:42:07;19.23;;;13.25;;
22812;SDS011;11573;51.334;3.244;2022-10-31T03:44:39;18.85;;;12.35;;
22812;SDS011;11573;51.334;3.244;2022-10-31T03:47:10;19.40;;;13.25;;
22812;SDS011;11573;51.334;3.244;2022-10-31T03:49:37;24.67;;;14.85;;
22812;SDS011;11573;51.334;3.244;2022-10-31T04:00:04;20.73;;;13.77;;
22812;SDS011;11573;51.334;3.244;2022-10-31T04:02:58;24.67;;;15.63;;
22812;SDS011;11573;51.334;3.244;2022-10-31T04:05:32;21.27;;;15.05;;
22812;SDS011;11573;51.334;3.244;2022-10-31T04:08:02;22.20;;;15.40;;
22812;SDS011;11573;51.334;3.244;2022-10-31T04:10:32;20.65;;;15.88;;
22812;SDS011;11573;51.334;3.244;2022-10-31T04:13:02;23.58;;;15.38;;
22812;SDS011;11573;51.334;3.244;2022-10-31T04:15:43;21.30;;;15.18;;
22812;SDS011;11573;51.334;3.244;2022-10-31T04:18:12;26.80;;;17.30;;
22812;SDS011;11573;51.334;3.244;2022-10-31T04:20:40;26.23;;;17.25;;
22812;SDS011;11573;51.334;3.244;2022-10-31T04:23:16;31.60;;;18.17;;
22812;SDS011;11573;51.334;3.244;2022-10-31T04:25:47;29.27;;;19.35;;
22812;SDS011;11573;51.334;3.244;2022-10-31T04:28:16;31.25;;;19.92;;
22812;SDS011;11573;51.334;3.244;2022-10-31T04:30:48;30.92;;;19.88;;
22812;SDS011;11573;51.334;3.244;2022-10-31T04:33:15;33.58;;;21.60;;
22812;SDS011;11573;51.334;3.244;2022-10-31T04:35:44;29.58;;;21.33;;
22812;SDS011;11573;51.334;3.244;2022-10-31T04:38:12;31.98;;;21.45;;
22812;SDS011;11573;51.334;3.244;2022-10-31T04:40:40;31.65;;;21.83;;
22812;SDS011;11573;51.334;3.244;2022-10-31T04:43:27;29.27;;;20.55;;
22812;SDS011;11573;51.334;3.244;2022-10-31T04:45:53;32.25;;;21.63;;
22812;SDS011;11573;51.334;3.244;2022-10-31T04:48:21;30.45;;;20.83;;
22812;SDS011;11573;51.334;3.244;2022-10-31T04:50:48;34.78;;;21.45;;
22812;SDS011;11573;51.334;3.244;2022-10-31T04:53:15;32.03;;;21.05;;
22812;SDS011;11573;51.334;3.244;2022-10-31T04:56:02;30.13;;;20.35;;
22812;SDS011;11573;51.334;3.244;2022-10-31T04:58:40;28.70;;;19.95;;
22812;SDS011;11573;51.334;3.244;2022-10-31T05:01:09;28.02;;;20.00;;
22812;SDS011;11573;51.334;3.244;2022-10-31T05:03:36;28.58;;;19.50;;
22812;SDS011;11573;51.334;3.244;2022-10-31T05:06:06;29.98;;;20.48;;
22812;SDS011;11573;51.334;3.244;2022-10-31T05:08:34;29.05;;;19.55;;
22812;SDS011;11573;51.334;3.244;2022-10-31T05:11:04;28.33;;;19.05;;
22812;SDS011;11573;51.334;3.244;2022-10-31T05:13:32;24.98;;;18.88;;
22812;SDS011;11573;51.334;3.244;2022-10-31T05:16:19;24.88;;;17.73;;
22812;SDS011;11573;51.334;3.244;2022-10-31T05:19:09;27.27;;;17.98;;
22812;SDS011;11573;51.334;3.244;2022-10-31T05:21:54;31.50;;;19.25;;
22812;SDS011;11573;51.334;3.244;2022-10-31T05:24:22;27.90;;;18.92;;
22812;SDS011;11573;51.334;3.244;2022-10-31T05:26:49;27.88;;;19.42;;
22812;SDS011;11573;51.334;3.244;2022-10-31T05:29:16;31.17;;;19.17;;
22812;SDS011;11573;51.334;3.244;2022-10-31T05:31:43;31.52;;;20.88;;
22812;SDS011;11573;51.334;3.244;2022-10-31T05:34:30;29.48;;;20.15;;
22812;SDS011;11573;51.334;3.244;2022-10-31T05:37:23;30.25;;;18.90;;
22812;SDS011;11573;51.334;3.244;2022-10-31T05:39:50;29.17;;;19.52;;
22812;SDS011;11573;51.334;3.244;2022-10-31T05:42:17;29.30;;;19.67;;
22812;SDS011;11573;51.334;3.244;2022-10-31T05:44:44;31.20;;;19.73;;
22812;SDS011;11573;51.334;3.244;2022-10-31T05:50:05;33.45;;;21.38;;
22812;SDS011;11573;51.334;3.244;2022-10-31T05:52:44;42.97;;;21.63;;
22812;SDS011;11573;51.334;3.244;2022-10-31T05:55:28;40.13;;;21.30;;
22812;SDS011;11573;51.334;3.244;2022-10-31T05:58:02;33.75;;;21.45;;
22812;SDS011;11573;51.334;3.244;2022-10-31T06:00:32;34.90;;;21.10;;
22812;SDS011;11573;51.334;3.244;2022-10-31T06:03:07;34.35;;;21.88;;
22812;SDS011;11573;51.334;3.244;2022-10-31T06:06:00;31.02;;;20.05;;
22812;SDS011;11573;51.334;3.244;2022-10-31T06:08:39;36.47;;;20.67;;
22812;SDS011;11573;51.334;3.244;2022-10-31T06:11:14;34.42;;;20.27;;
22812;SDS011;11573;51.334;3.244;2022-10-31T06:13:59;35.17;;;20.40;;
22812;SDS011;11573;51.334;3.244;2022-10-31T06:16:36;29.98;;;18.85;;
22812;SDS011;11573;51.334;3.244;2022-10-31T06:19:25;33.00;;;19.35;;
22812;SDS011;11573;51.334;3.244;2022-10-31T06:21:52;29.65;;;19.00;;
22812;SDS011;11573;51.334;3.244;2022-10-31T06:24:19;30.40;;;19.65;;
22812;SDS011;11573;51.334;3.244;2022-10-31T06:26:52;31.52;;;19.65;;
22812;SDS011;11573;51.334;3.244;2022-10-31T06:29:20;35.05;;;20.00;;
22812;SDS011;11573;51.334;3.244;2022-10-31T06:32:09;36.33;;;20.50;;
22812;SDS011;11573;51.334;3.244;2022-10-31T06:34:41;31.60;;;19.52;;
22812;SDS011;11573;51.334;3.244;2022-10-31T06:37:12;33.38;;;20.35;;
22812;SDS011;11573;51.334;3.244;2022-10-31T06:39:42;31.55;;;19.67;;
22812;SDS011;11573;51.334;3.244;2022-10-31T06:42:11;32.80;;;18.90;;
22812;SDS011;11573;51.334;3.244;2022-10-31T06:44:38;35.25;;;20.38;;
22812;SDS011;11573;51.334;3.244;2022-10-31T06:47:23;32.92;;;19.45;;
22812;SDS011;11573;51.334;3.244;2022-10-31T06:50:05;34.75;;;19.65;;
22812;SDS011;11573;51.334;3.244;2022-10-31T06:52:33;34.40;;;18.50;;
22812;SDS011;11573;51.334;3.244;2022-10-31T06:55:01;36.35;;;19.95;;
22812;SDS011;11573;51.334;3.244;2022-10-31T06:57:29;30.85;;;19.60;;
22812;SDS011;11573;51.334;3.244;2022-10-31T06:59:58;28.08;;;18.38;;
22812;SDS011;11573;51.334;3.244;2022-10-31T07:02:41;30.08;;;17.67;;
22812;SDS011;11573;51.334;3.244;2022-10-31T07:05:08;31.70;;;18.83;;
22812;SDS011;11573;51.334;3.244;2022-10-31T07:07:35;29.30;;;18.92;;
22812;SDS011;11573;51.334;3.244;2022-10-31T07:10:02;26.77;;;18.33;;
22812;SDS011;11573;51.334;3.244;2022-10-31T07:12:48;31.13;;;18.63;;
22812;SDS011;11573;51.334;3.244;2022-10-31T07:15:15;28.98;;;19.35;;
22812;SDS011;11573;51.334;3.244;2022-10-31T07:17:42;27.63;;;18.40;;
22812;SDS011;11573;51.334;3.244;2022-10-31T07:20:09;28.25;;;18.05;;
22812;SDS011;11573;51.334;3.244;2022-10-31T07:22:37;31.50;;;19.17;;
22812;SDS011;11573;51.334;3.244;2022-10-31T07:25:07;31.13;;;18.83;;
22812;SDS011;11573;51.334;3.244;2022-10-31T07:27:53;31.38;;;17.98;;
22812;SDS011;11573;51.334;3.244;2022-10-31T07:30:20;29.50;;;18.65;;
22812;SDS011;11573;51.334;3.244;2022-10-31T07:32:50;27.50;;;17.05;;
22812;SDS011;11573;51.334;3.244;2022-10-31T07:35:19;26.33;;;17.80;;
22812;SDS011;11573;51.334;3.244;2022-10-31T07:37:57;28.02;;;17.50;;
22812;SDS011;11573;51.334;3.244;2022-10-31T07:40:32;27.00;;;18.13;;
22812;SDS011;11573;51.334;3.244;2022-10-31T07:42:59;31.90;;;18.23;;
22812;SDS011;11573;51.334;3.244;2022-10-31T07:45:53;31.92;;;18.67;;
22812;SDS011;11573;51.334;3.244;2022-10-31T07:48:46;35.95;;;18.23;;
22812;SDS011;11573;51.334;3.244;2022-10-31T07:51:31;27.20;;;18.10;;
22812;SDS011;11573;51.334;3.244;2022-10-31T07:54:16;30.85;;;17.67;;
22812;SDS011;11573;51.334;3.244;2022-10-31T07:56:43;28.63;;;18.90;;
22812;SDS011;11573;51.334;3.244;2022-10-31T07:59:11;28.42;;;18.83;;
22812;SDS011;11573;51.334;3.244;2022-10-31T08:01:40;30.35;;;19.02;;
22812;SDS011;11573;51.334;3.244;2022-10-31T08:04:25;33.92;;;19.80;;
22812;SDS011;11573;51.334;3.244;2022-10-31T08:07:11;29.23;;;19.40;;
22812;SDS011;11573;51.334;3.244;2022-10-31T08:09:42;25.88;;;17.98;;
22812;SDS011;11573;51.334;3.244;2022-10-31T08:12:17;27.23;;;18.90;;
22812;SDS011;11573;51.334;3.244;2022-10-31T08:14:45;32.08;;;19.65;;
22812;SDS011;11573;51.334;3.244;2022-10-31T08:17:13;36.08;;;18.05;;
22812;SDS011;11573;51.334;3.244;2022-10-31T08:19:52;27.02;;;16.98;;
22812;SDS011;11573;51.334;3.244;2022-10-31T08:22:24;29.55;;;19.63;;
22812;SDS011;11573;51.334;3.244;2022-10-31T08:24:51;32.00;;;19.35;;
22812;SDS011;11573;51.334;3.244;2022-10-31T08:27:18;30.60;;;19.65;;
22812;SDS011;11573;51.334;3.244;2022-10-31T08:29:45;38.25;;;18.40;;
22812;SDS011;11573;51.334;3.244;2022-10-31T08:32:12;31.48;;;18.63;;
22812;SDS011;11573;51.334;3.244;2022-10-31T08:34:51;36.95;;;18.80;;
22812;SDS011;11573;51.334;3.244;2022-10-31T08:37:38;34.13;;;18.05;;
22812;SDS011;11573;51.334;3.244;2022-10-31T08:40:05;28.20;;;18.50;;
22812;SDS011;11573;51.334;3.244;2022-10-31T08:42:33;28.90;;;18.55;;
22812;SDS011;11573;51.334;3.244;2022-10-31T08:45:01;30.88;;;19.92;;
22812;SDS011;11573;51.334;3.244;2022-10-31T08:47:30;32.00;;;19.98;;
22812;SDS011;11573;51.334;3.244;2022-10-31T08:49:57;34.63;;;20.23;;
22812;SDS011;11573;51.334;3.244;2022-10-31T08:52:24;32.35;;;20.10;;
22812;SDS011;11573;51.334;3.244;2022-10-31T08:55:11;31.70;;;19.75;;
22812;SDS011;11573;51.334;3.244;2022-10-31T08:57:57;29.23;;;20.13;;
22812;SDS011;11573;51.334;3.244;2022-10-31T09:00:34;35.08;;;19.60;;
22812;SDS011;11573;51.334;3.244;2022-10-31T09:03:10;29.60;;;18.85;;
22812;SDS011;11573;51.334;3.244;2022-10-31T09:05:41;26.50;;;18.08;;
22812;SDS011;11573;51.334;3.244;2022-10-31T09:08:10;32.03;;;19.20;;
22812;SDS011;11573;51.334;3.244;2022-10-31T09:10:44;27.50;;;17.25;;
22812;SDS011;11573;51.334;3.244;2022-10-31T09:13:15;24.20;;;16.05;;
22812;SDS011;11573;51.334;3.244;2022-10-31T09:16:06;24.25;;;16.05;;
22812;SDS011;11573;51.334;3.244;2022-10-31T09:18:34;27.60;;;16.63;;
22812;SDS011;11573;51.334;3.244;2022-10-31T09:21:01;24.65;;;15.68;;
22812;SDS011;11573;51.334;3.244;2022-10-31T09:23:29;22.20;;;15.05;;
22812;SDS011;11573;51.334;3.244;2022-10-31T09:25:59;23.98;;;15.93;;
22812;SDS011;11573;51.334;3.244;2022-10-31T09:28:35;21.23;;;15.02;;
22812;SDS011;11573;51.334;3.244;2022-10-31T09:31:06;23.50;;;14.80;;
22812;SDS011;11573;51.334;3.244;2022-10-31T09:33:49;23.88;;;14.52;;
22812;SDS011;11573;51.334;3.244;2022-10-31T09:36:37;18.63;;;13.30;;
22812;SDS011;11573;51.334;3.244;2022-10-31T09:39:07;19.80;;;13.23;;
22812;SDS011;11573;51.334;3.244;2022-10-31T09:49:58;17.45;;;11.32;;
22812;SDS011;11573;51.334;3.244;2022-10-31T09:53:12;14.93;;;10.80;;
22812;SDS011;11573;51.334;3.244;2022-10-31T09:55:43;16.30;;;10.55;;
22812;SDS011;11573;51.334;3.244;2022-10-31T09:58:15;18.92;;;11.07;;
22812;SDS011;11573;51.334;3.244;2022-10-31T10:00:46;18.02;;;10.20;;
22812;SDS011;11573;51.334;3.244;2022-10-31T10:03:20;13.77;;;10.50;;
22812;SDS011;11573;51.334;3.244;2022-10-31T10:06:22;21.17;;;10.95;;
22812;SDS011;11573;51.334;3.244;2022-10-31T10:09:12;16.95;;;10.68;;
22812;SDS011;11573;51.334;3.244;2022-10-31T10:15:18;17.80;;;11.15;;
22812;SDS011;11573;51.334;3.244;2022-10-31T10:18:05;16.98;;;11.80;;
22812;SDS011;11573;51.334;3.244;2022-10-31T10:20:53;17.77;;;11.95;;
22812;SDS011;11573;51.334;3.244;2022-10-31T10:26:26;18.65;;;12.45;;
22812;SDS011;11573;51.334;3.244;2022-10-31T10:29:10;22.50;;;13.15;;
22812;SDS011;11573;51.334;3.244;2022-10-31T10:31:58;21.77;;;13.88;;
22812;SDS011;11573;51.334;3.244;2022-10-31T10:34:30;17.23;;;13.13;;
22812;SDS011;11573;51.334;3.244;2022-10-31T10:37:26;18.35;;;12.20;;
22812;SDS011;11573;51.334;3.244;2022-10-31T10:40:23;18.27;;;12.10;;
22812;SDS011;11573;51.334;3.244;2022-10-31T10:51:37;16.67;;;9.52;;
22812;SDS011;11573;51.334;3.244;2022-10-31T10:59:56;14.30;;;9.90;;
22812;SDS011;11573;51.334;3.244;2022-10-31T11:02:25;16.17;;;9.93;;
22812;SDS011;11573;51.334;3.244;2022-10-31T11:04:58;15.88;;;10.93;;
22812;SDS011;11573;51.334;3.244;2022-10-31T11:07:36;16.58;;;10.48;;
22812;SDS011;11573;51.334;3.244;2022-10-31T11:10:06;18.65;;;10.73;;
22812;SDS011;11573;51.334;3.244;2022-10-31T11:12:40;16.03;;;9.80;;
22812;SDS011;11573;51.334;3.244;2022-10-31T11:15:20;17.02;;;11.52;;
22812;SDS011;11573;51.334;3.244;2022-10-31T11:17:50;16.23;;;11.05;;
22812;SDS011;11573;51.334;3.244;2022-10-31T11:22:47;16.88;;;11.07;;
22812;SDS011;11573;51.334;3.244;2022-10-31T11:25:21;17.30;;;11.38;;
22812;SDS011;11573;51.334;3.244;2022-10-31T11:28:03;18.15;;;10.95;;
22812;SDS011;11573;51.334;3.244;2022-10-31T11:30:42;17.23;;;10.73;;
22812;SDS011;11573;51.334;3.244;2022-10-31T11:33:54;19.40;;;10.00;;
22812;SDS011;11573;51.334;3.244;2022-10-31T11:38:48;18.88;;;10.30;;
22812;SDS011;11573;51.334;3.244;2022-10-31T11:41:17;15.20;;;10.48;;
22812;SDS011;11573;51.334;3.244;2022-10-31T11:43:48;14.75;;;10.63;;
22812;SDS011;11573;51.334;3.244;2022-10-31T11:51:32;15.57;;;10.18;;
22812;SDS011;11573;51.334;3.244;2022-10-31T11:54:01;14.20;;;9.45;;
22812;SDS011;11573;51.334;3.244;2022-10-31T11:56:40;12.70;;;9.55;;
22812;SDS011;11573;51.334;3.244;2022-10-31T11:59:15;16.60;;;10.80;;
22812;SDS011;11573;51.334;3.244;2022-10-31T12:02:14;14.80;;;9.83;;
22812;SDS011;11573;51.334;3.244;2022-10-31T12:04:46;17.13;;;9.20;;
22812;SDS011;11573;51.334;3.244;2022-10-31T12:07:29;12.32;;;9.70;;
22812;SDS011;11573;51.334;3.244;2022-10-31T12:09:56;13.07;;;9.25;;
22812;SDS011;11573;51.334;3.244;2022-10-31T12:15:33;17.60;;;9.45;;
22812;SDS011;11573;51.334;3.244;2022-10-31T12:21:03;12.93;;;10.40;;
22812;SDS011;11573;51.334;3.244;2022-10-31T12:23:47;15.57;;;11.85;;
22812;SDS011;11573;51.334;3.244;2022-10-31T12:32:26;17.52;;;12.50;;
22812;SDS011;11573;51.334;3.244;2022-10-31T12:38:18;17.67;;;12.48;;
22812;SDS011;11573;51.334;3.244;2022-10-31T12:40:47;17.70;;;12.25;;
22812;SDS011;11573;51.334;3.244;2022-10-31T12:43:45;22.80;;;12.10;;
22812;SDS011;11573;51.334;3.244;2022-10-31T12:46:16;17.15;;;11.38;;
22812;SDS011;11573;51.334;3.244;2022-10-31T12:52:06;16.70;;;10.68;;
22812;SDS011;11573;51.334;3.244;2022-10-31T12:57:28;18.73;;;10.48;;
22812;SDS011;11573;51.334;3.244;2022-10-31T13:05:33;25.15;;;12.80;;
22812;SDS011;11573;51.334;3.244;2022-10-31T13:08:05;25.30;;;12.80;;
22812;SDS011;11573;51.334;3.244;2022-10-31T13:10:43;21.58;;;12.85;;
22812;SDS011;11573;51.334;3.244;2022-10-31T13:13:24;27.40;;;12.88;;
22812;SDS011;11573;51.334;3.244;2022-10-31T13:16:04;19.92;;;11.75;;
22812;SDS011;11573;51.334;3.244;2022-10-31T13:18:42;23.45;;;11.18;;
22812;SDS011;11573;51.334;3.244;2022-10-31T13:21:25;18.80;;;11.57;;
22812;SDS011;11573;51.334;3.244;2022-10-31T13:23:57;16.20;;;10.98;;
22812;SDS011;11573;51.334;3.244;2022-10-31T13:26:40;19.00;;;11.10;;
22812;SDS011;11573;51.334;3.244;2022-10-31T13:32:00;20.05;;;11.50;;
22812;SDS011;11573;51.334;3.244;2022-10-31T13:34:33;19.65;;;11.27;;
22812;SDS011;11573;51.334;3.244;2022-10-31T13:45:18;20.90;;;12.25;;
22812;SDS011;11573;51.334;3.244;2022-10-31T13:51:00;15.93;;;11.07;;
22812;SDS011;11573;51.334;3.244;2022-10-31T13:53:55;23.15;;;11.68;;
22812;SDS011;11573;51.334;3.244;2022-10-31T13:56:26;20.02;;;11.73;;
22812;SDS011;11573;51.334;3.244;2022-10-31T13:59:15;19.15;;;10.73;;
22812;SDS011;11573;51.334;3.244;2022-10-31T14:01:51;21.03;;;11.53;;
22812;SDS011;11573;51.334;3.244;2022-10-31T14:04:37;21.05;;;12.02;;
22812;SDS011;11573;51.334;3.244;2022-10-31T14:07:08;21.50;;;11.68;;
22812;SDS011;11573;51.334;3.244;2022-10-31T14:09:52;19.00;;;11.48;;
22812;SDS011;11573;51.334;3.244;2022-10-31T14:12:51;17.60;;;11.68;;
22812;SDS011;11573;51.334;3.244;2022-10-31T14:15:24;23.90;;;14.07;;
22812;SDS011;11573;51.334;3.244;2022-10-31T14:23:12;22.35;;;14.05;;
22812;SDS011;11573;51.334;3.244;2022-10-31T14:25:40;26.63;;;15.80;;
22812;SDS011;11573;51.334;3.244;2022-10-31T14:28:31;27.65;;;16.60;;
22812;SDS011;11573;51.334;3.244;2022-10-31T14:31:00;24.88;;;16.02;;
22812;SDS011;11573;51.334;3.244;2022-10-31T14:33:28;30.83;;;17.73;;
22812;SDS011;11573;51.334;3.244;2022-10-31T14:36:04;27.80;;;16.52;;
22812;SDS011;11573;51.334;3.244;2022-10-31T14:52:28;33.20;;;19.10;;
22812;SDS011;11573;51.334;3.244;2022-10-31T14:54:56;29.75;;;20.27;;
22812;SDS011;11573;51.334;3.244;2022-10-31T14:57:26;29.00;;;20.58;;
22812;SDS011;11573;51.334;3.244;2022-10-31T14:59:58;27.95;;;20.92;;
22812;SDS011;11573;51.334;3.244;2022-10-31T15:03:33;29.90;;;21.45;;
22812;SDS011;11573;51.334;3.244;2022-10-31T15:05:46;36.90;;;21.48;;
22812;SDS011;11573;51.334;3.244;2022-10-31T15:08:27;33.60;;;21.67;;
22812;SDS011;11573;51.334;3.244;2022-10-31T15:13:49;41.08;;;23.35;;
22812;SDS011;11573;51.334;3.244;2022-10-31T15:16:40;36.72;;;23.13;;
22812;SDS011;11573;51.334;3.244;2022-10-31T15:19:12;37.92;;;22.75;;
22812;SDS011;11573;51.334;3.244;2022-10-31T15:21:49;37.78;;;23.90;;
22812;SDS011;11573;51.334;3.244;2022-10-31T15:24:17;40.42;;;25.42;;
22812;SDS011;11573;51.334;3.244;2022-10-31T15:26:45;41.45;;;25.08;;
22812;SDS011;11573;51.334;3.244;2022-10-31T15:29:18;41.75;;;25.15;;
22812;SDS011;11573;51.334;3.244;2022-10-31T15:31:49;44.25;;;25.60;;
22812;SDS011;11573;51.334;3.244;2022-10-31T15:34:37;37.22;;;25.40;;
22812;SDS011;11573;51.334;3.244;2022-10-31T15:37:16;46.63;;;26.65;;
22812;SDS011;11573;51.334;3.244;2022-10-31T15:39:47;43.20;;;26.73;;
22812;SDS011;11573;51.334;3.244;2022-10-31T15:42:27;41.58;;;24.95;;
22812;SDS011;11573;51.334;3.244;2022-10-31T15:45:00;40.72;;;25.38;;
22812;SDS011;11573;51.334;3.244;2022-10-31T15:47:32;43.35;;;26.10;;
22812;SDS011;11573;51.334;3.244;2022-10-31T15:50:00;36.10;;;24.13;;
22812;SDS011;11573;51.334;3.244;2022-10-31T15:55:21;43.38;;;25.75;;
22812;SDS011;11573;51.334;3.244;2022-10-31T15:57:58;41.05;;;24.75;;
22812;SDS011;11573;51.334;3.244;2022-10-31T16:00:29;46.90;;;27.42;;
22812;SDS011;11573;51.334;3.244;2022-10-31T16:05:37;41.90;;;27.27;;
22812;SDS011;11573;51.334;3.244;2022-10-31T16:08:21;49.95;;;28.98;;
22812;SDS011;11573;51.334;3.244;2022-10-31T16:13:37;46.95;;;27.90;;
22812;SDS011;11573;51.334;3.244;2022-10-31T16:16:14;50.72;;;29.17;;
22812;SDS011;11573;51.334;3.244;2022-10-31T16:19:03;57.25;;;29.25;;
22812;SDS011;11573;51.334;3.244;2022-10-31T16:21:35;49.88;;;29.42;;
22812;SDS011;11573;51.334;3.244;2022-10-31T16:24:10;51.38;;;29.25;;
22812;SDS011;11573;51.334;3.244;2022-10-31T16:26:54;49.72;;;27.83;;
22812;SDS011;11573;51.334;3.244;2022-10-31T16:29:41;49.55;;;29.85;;
22812;SDS011;11573;51.334;3.244;2022-10-31T16:32:26;53.65;;;30.67;;
22812;SDS011;11573;51.334;3.244;2022-10-31T16:34:57;55.90;;;30.80;;
22812;SDS011;11573;51.334;3.244;2022-10-31T16:37:44;53.88;;;31.20;;
22812;SDS011;11573;51.334;3.244;2022-10-31T16:40:12;53.42;;;30.92;;
22812;SDS011;11573;51.334;3.244;2022-10-31T16:42:43;55.05;;;33.03;;
22812;SDS011;11573;51.334;3.244;2022-10-31T16:45:18;50.00;;;32.05;;
22812;SDS011;11573;51.334;3.244;2022-10-31T16:47:50;57.13;;;31.83;;
22812;SDS011;11573;51.334;3.244;2022-10-31T16:52:48;56.72;;;32.55;;
22812;SDS011;11573;51.334;3.244;2022-10-31T16:55:39;57.60;;;33.72;;
22812;SDS011;11573;51.334;3.244;2022-10-31T16:58:29;59.08;;;34.33;;
22812;SDS011;11573;51.334;3.244;2022-10-31T17:00:59;67.38;;;36.08;;
22812;SDS011;11573;51.334;3.244;2022-10-31T17:03:27;57.10;;;36.40;;
22812;SDS011;11573;51.334;3.244;2022-10-31T17:05:54;64.10;;;36.13;;
22812;SDS011;11573;51.334;3.244;2022-10-31T17:08:21;63.92;;;35.40;;
22812;SDS011;11573;51.334;3.244;2022-10-31T17:10:50;66.30;;;36.85;;
22812;SDS011;11573;51.334;3.244;2022-10-31T17:13:20;64.97;;;36.95;;
22812;SDS011;11573;51.334;3.244;2022-10-31T17:15:50;64.07;;;38.08;;
22812;SDS011;11573;51.334;3.244;2022-10-31T17:18:20;67.32;;;38.50;;
22812;SDS011;11573;51.334;3.244;2022-10-31T17:20:56;73.25;;;39.00;;
22812;SDS011;11573;51.334;3.244;2022-10-31T17:23:25;239.55;;;135.30;;
22812;SDS011;11573;51.334;3.244;2022-10-31T17:25:53;70.57;;;39.15;;
22812;SDS011;11573;51.334;3.244;2022-10-31T17:28:21;69.85;;;39.53;;
22812;SDS011;11573;51.334;3.244;2022-10-31T17:30:48;76.93;;;40.00;;
22812;SDS011;11573;51.334;3.244;2022-10-31T17:33:15;70.72;;;37.88;;
22812;SDS011;11573;51.334;3.244;2022-10-31T17:35:42;69.82;;;36.97;;
22812;SDS011;11573;51.334;3.244;2022-10-31T17:38:10;67.00;;;37.58;;
22812;SDS011;11573;51.334;3.244;2022-10-31T17:40:38;70.28;;;38.55;;
22812;SDS011;11573;51.334;3.244;2022-10-31T17:43:07;64.25;;;37.35;;